createdAt,value
2022-09-05T00:26:24.456Z,99.90
2022-09-05T00:31:07.809Z,99.90
2022-09-05T00:34:18.457Z,99.90
2022-09-05T00:40:40.509Z,99.90
2022-09-05T00:47:20.446Z,99.90
2022-09-05T00:50:37.557Z,99.90
2022-09-05T00:53:57.447Z,99.90
2022-09-05T00:57:45.431Z,99.90
2022-09-05T01:00:56.553Z,99.90
2022-09-05T01:40:10.504Z,99.90
2022-09-05T01:42:47.429Z,99.90
2022-09-05T01:52:37.487Z,99.90
2022-09-05T02:06:34.458Z,99.90
2022-09-05T02:09:38.478Z,99.90
2022-09-05T02:13:02.323Z,99.90
2022-09-05T02:32:24.604Z,99.90
2022-09-05T02:45:01.243Z,99.90
2022-09-05T02:45:12.503Z,99.90
2022-09-05T02:57:35.241Z,99.90
2022-09-05T03:06:08.524Z,99.90
2022-09-05T03:19:01.502Z,99.90
2022-09-05T03:28:55.510Z,99.90
2022-09-05T03:35:40.518Z,99.90
2022-09-05T03:39:02.589Z,99.90
2022-09-05T04:08:15.212Z,99.90
2022-09-05T04:34:22.541Z,99.90
2022-09-05T05:11:59.097Z,99.90
2022-09-05T05:18:12.356Z,99.90
2022-09-05T05:20:44.043Z,99.90
2022-09-05T05:23:48.547Z,99.90
2022-09-05T05:27:07.575Z,99.90
2022-09-05T05:30:04.854Z,99.90
2022-09-05T05:33:30.547Z,99.90
2022-09-05T05:36:35.616Z,99.90
2022-09-05T05:39:48.622Z,99.90
2022-09-05T05:42:42.639Z,99.90
2022-09-05T05:45:48.618Z,96.10
2022-09-05T05:48:48.456Z,94.30
2022-09-05T05:52:35.556Z,96.10
2022-09-05T05:56:21.536Z,99.90
2022-09-05T05:59:56.344Z,99.90
2022-09-05T06:03:26.865Z,99.90
2022-09-05T06:06:40.662Z,99.90
2022-09-05T06:14:47.933Z,99.90
2022-09-05T06:17:03.594Z,99.90
2022-09-05T06:21:24.027Z,99.90
2022-09-05T06:23:46.056Z,99.90
2022-09-05T06:26:58.685Z,99.90
2022-09-05T06:33:49.637Z,99.90
2022-09-05T06:37:01.601Z,99.90
2022-09-05T06:40:03.860Z,99.90
2022-09-05T06:43:20.596Z,99.90
2022-09-05T06:47:22.017Z,99.90
2022-09-05T06:50:24.360Z,99.90
2022-09-05T06:54:10.591Z,99.90
2022-09-05T06:57:53.576Z,99.90
2022-09-05T07:01:01.747Z,99.90
2022-09-05T07:03:56.675Z,99.90
2022-09-05T07:07:07.600Z,99.90
2022-09-05T07:10:34.977Z,99.90
2022-09-05T07:13:44.578Z,99.90
2022-09-05T07:19:58.594Z,99.90
2022-09-05T07:24:05.647Z,99.90
2022-09-05T07:26:54.288Z,99.90
2022-09-05T07:30:01.915Z,99.90
2022-09-05T07:32:56.392Z,99.90
2022-09-05T07:36:04.624Z,99.90
2022-09-05T07:39:25.205Z,99.90
2022-09-05T07:42:42.622Z,99.90
2022-09-05T07:45:37.794Z,99.90
2022-09-05T07:48:50.643Z,99.90
2022-09-05T07:56:50.567Z,99.90
2022-09-05T07:57:16.121Z,99.90
2022-09-05T07:59:00.627Z,99.90
2022-09-05T08:02:08.601Z,99.90
2022-09-05T08:05:06.642Z,99.90
2022-09-05T08:08:16.633Z,99.90
2022-09-05T08:11:25.668Z,99.90
2022-09-05T08:14:53.640Z,99.90
2022-09-05T08:18:25.645Z,99.90
2022-09-05T08:21:48.636Z,99.90
2022-09-05T08:25:02.658Z,99.90
2022-09-05T08:28:25.775Z,99.90
2022-09-05T08:31:44.698Z,99.90
2022-09-05T08:34:57.635Z,99.90
2022-09-05T08:38:05.641Z,99.90
2022-09-05T08:41:02.910Z,99.90
2022-09-05T08:46:41.709Z,99.90
2022-09-05T08:48:19.646Z,99.90
2022-09-05T08:51:53.956Z,99.90
2022-09-05T08:55:09.638Z,99.90
2022-09-05T08:58:17.736Z,99.60
2022-09-05T09:01:22.683Z,99.90
2022-09-05T09:07:58.653Z,99.40
2022-09-05T09:11:11.727Z,99.20
2022-09-05T09:14:38.644Z,97.20
2022-09-05T09:17:57.638Z,97.30
2022-09-05T09:20:52.834Z,95.70
2022-09-05T09:24:16.654Z,94.20
2022-09-05T09:27:38.413Z,94.90
2022-09-05T09:31:24.686Z,94.10
2022-09-05T09:34:23.119Z,93.70
2022-09-05T09:37:53.418Z,95.10
2022-09-05T09:41:29.248Z,94.80
2022-09-05T09:45:22.742Z,96.00
2022-09-05T09:48:46.674Z,95.30
2022-09-05T09:51:55.746Z,94.80
2022-09-05T09:55:29.662Z,95.50
2022-09-05T09:58:37.823Z,93.60
2022-09-05T10:02:07.404Z,94.80
2022-09-05T10:10:39.095Z,93.30
2022-09-05T10:10:48.839Z,93.50
2022-09-05T10:12:53.224Z,91.40
2022-09-05T10:16:33.700Z,89.30
2022-09-05T10:20:11.266Z,89.10
2022-09-05T10:23:51.668Z,88.80
2022-09-05T10:27:07.679Z,89.20
2022-09-05T10:30:19.812Z,89.10
2022-09-05T10:35:15.102Z,88.50
2022-09-05T10:37:11.822Z,87.30
2022-09-05T10:40:24.677Z,87.80
2022-09-05T10:43:31.769Z,84.50
2022-09-05T10:46:51.518Z,85.20
2022-09-05T10:49:50.881Z,82.60
2022-09-05T10:53:23.717Z,81.70
2022-09-05T10:56:29.804Z,80.70
2022-09-05T11:02:22.998Z,83.30
2022-09-05T11:03:22.318Z,83.90
2022-09-05T11:06:25.030Z,84.20
2022-09-05T11:09:58.713Z,84.60
2022-09-05T11:13:24.544Z,82.00
2022-09-05T11:16:55.755Z,81.20
2022-09-05T11:20:20.765Z,77.70
2022-09-05T11:23:48.722Z,77.60
2022-09-05T11:27:25.148Z,77.20
2022-09-05T11:30:34.467Z,80.20
2022-09-05T11:39:54.633Z,80.60
2022-09-05T11:40:07.455Z,82.40
2022-09-05T11:41:34.820Z,82.00
2022-09-05T11:44:41.778Z,84.00
2022-09-05T11:48:24.878Z,84.30
2022-09-05T11:51:28.272Z,82.70
2022-09-05T11:55:20.894Z,83.10
2022-09-05T11:58:54.804Z,83.50
2022-09-05T12:02:26.346Z,81.20
2022-09-05T12:06:01.876Z,84.70
2022-09-05T12:09:06.286Z,81.60
2022-09-05T12:12:43.730Z,83.10
2022-09-05T12:15:37.648Z,81.20
2022-09-05T12:19:19.765Z,83.60
2022-09-05T12:22:27.769Z,85.40
2022-09-05T12:29:26.480Z,83.70
2022-09-05T12:34:44.006Z,83.80
2022-09-05T12:36:12.399Z,84.40
2022-09-05T12:40:55.454Z,83.30
2022-09-05T12:44:03.287Z,82.40
2022-09-05T12:46:33.346Z,81.50
2022-09-05T12:49:52.237Z,82.40
2022-09-05T12:53:04.729Z,83.40
2022-09-05T12:57:27.744Z,81.30
2022-09-05T13:03:03.931Z,78.60
2022-09-05T13:03:28.647Z,78.90
2022-09-05T13:06:47.006Z,81.60
2022-09-05T13:11:08.115Z,83.00
2022-09-05T13:14:54.430Z,80.70
2022-09-05T13:17:00.757Z,79.70
2022-09-05T13:19:53.932Z,80.80
2022-09-05T13:23:01.756Z,82.40
2022-09-05T13:26:19.531Z,80.70
2022-09-05T13:31:42.041Z,81.30
2022-09-05T13:38:01.343Z,78.00
2022-09-05T13:38:20.333Z,76.10
2022-09-05T13:40:48.877Z,77.70
2022-09-05T13:46:58.643Z,80.40
2022-09-05T13:50:30.858Z,79.10
2022-09-05T13:53:36.838Z,79.10
2022-09-05T13:56:45.776Z,77.90
2022-09-05T13:59:42.147Z,77.10
2022-09-05T14:03:38.054Z,76.50
2022-09-05T14:06:48.825Z,76.80
2022-09-05T14:10:12.775Z,78.50
2022-09-05T14:13:12.074Z,79.30
2022-09-05T14:16:32.795Z,81.40
2022-09-05T14:19:43.693Z,82.40
2022-09-05T14:22:58.786Z,81.40
2022-09-05T14:26:05.817Z,80.90
2022-09-05T14:37:34.472Z,83.70
2022-09-05T14:38:00.509Z,78.30
2022-09-05T14:39:14.451Z,77.80
2022-09-05T14:42:13.844Z,78.50
2022-09-05T14:45:04.247Z,77.90
2022-09-05T14:48:24.882Z,77.10
2022-09-05T14:51:14.641Z,78.30
2022-09-05T14:54:07.869Z,80.60
2022-09-05T15:00:06.955Z,80.40
2022-09-05T15:02:43.608Z,83.00
2022-09-05T15:03:09.569Z,80.40
2022-09-05T15:05:53.970Z,81.30
2022-09-05T15:11:25.505Z,82.30
2022-09-05T15:12:22.077Z,84.40
2022-09-05T15:14:44.816Z,85.70
2022-09-05T15:17:28.943Z,85.90
2022-09-05T15:20:15.805Z,84.20
2022-09-05T15:26:07.831Z,84.30
2022-09-05T15:28:48.754Z,85.80
2022-09-05T15:31:35.827Z,86.20
2022-09-05T15:34:29.886Z,84.70
2022-09-05T15:37:47.826Z,83.20
2022-09-05T15:43:31.822Z,83.50
2022-09-05T15:46:19.867Z,83.80
2022-09-05T15:49:01.175Z,85.00
2022-09-05T15:51:57.826Z,85.50
2022-09-05T15:57:46.842Z,84.20
2022-09-05T16:00:39.982Z,83.00
2022-09-05T16:05:53.356Z,81.80
2022-09-05T16:10:37.465Z,81.30
2022-09-05T16:10:38.520Z,80.30
2022-09-05T16:13:06.829Z,81.50
2022-09-05T16:19:51.904Z,82.90
2022-09-05T16:23:14.890Z,84.70
2022-09-05T16:23:23.410Z,86.40
2022-09-05T16:25:12.889Z,88.20
2022-09-05T16:27:59.912Z,88.80
2022-09-05T16:30:46.843Z,89.90
2022-09-05T16:33:31.893Z,90.30
2022-09-05T16:36:35.836Z,90.50
2022-09-05T16:39:22.006Z,91.30
2022-09-05T16:42:20.867Z,91.80
2022-09-05T16:45:09.127Z,93.20
2022-09-05T16:48:27.868Z,93.20
2022-09-05T16:51:15.163Z,93.40
2022-09-05T16:54:12.859Z,93.80
2022-09-05T16:56:55.023Z,94.50
2022-09-05T16:59:47.858Z,94.80
2022-09-05T17:02:48.861Z,95.20
2022-09-05T17:06:00.831Z,95.60
2022-09-05T17:08:47.877Z,96.30
2022-09-05T17:11:29.806Z,96.50
2022-09-05T17:14:26.850Z,97.00
2022-09-05T17:17:19.558Z,98.10
2022-09-05T17:20:20.849Z,98.70
2022-09-05T17:28:05.201Z,99.20
2022-09-05T17:29:41.137Z,99.90
2022-09-05T17:29:44.574Z,99.90
2022-09-05T17:32:18.908Z,99.90
2022-09-05T17:35:28.889Z,99.90
2022-09-05T17:38:30.873Z,99.90
2022-09-05T17:41:44.879Z,99.90
2022-09-05T17:44:48.628Z,99.90
2022-09-05T17:47:52.899Z,99.90
2022-09-05T17:50:54.086Z,99.90
2022-09-05T17:54:06.881Z,99.90
2022-09-05T17:56:43.957Z,99.90
2022-09-05T17:59:34.855Z,99.90
2022-09-05T18:04:57.899Z,99.90
2022-09-05T18:07:34.738Z,99.90
2022-09-05T18:13:31.703Z,99.90
2022-09-05T18:16:19.897Z,99.90
2022-09-05T18:33:54.407Z,99.90
2022-09-05T18:39:37.975Z,99.90
2022-09-05T18:42:34.324Z,99.90
2022-09-05T18:45:17.573Z,99.90
2022-09-05T18:48:21.902Z,99.90
2022-09-05T18:51:15.582Z,99.90
2022-09-05T18:57:11.987Z,99.90
2022-09-05T18:59:53.917Z,99.90
2022-09-05T19:17:30.049Z,99.90
2022-09-05T19:20:32.728Z,99.90
2022-09-05T19:23:14.987Z,99.90
2022-09-05T19:26:09.867Z,99.90
2022-09-05T19:34:38.047Z,99.90
2022-09-05T19:37:08.028Z,99.90
2022-09-05T19:46:55.429Z,99.90
2022-09-05T19:47:35.726Z,99.90
2022-09-05T19:53:26.111Z,99.90
2022-09-05T19:58:50.934Z,99.90
2022-09-05T20:04:14.952Z,99.90
2022-09-05T20:09:36.916Z,99.90
2022-09-05T20:12:24.158Z,99.90
2022-09-05T20:15:43.955Z,99.90
2022-09-05T20:18:41.003Z,99.90
2022-09-05T20:21:36.934Z,99.90
2022-09-05T20:30:08.959Z,99.90
2022-09-05T20:38:44.509Z,99.90
2022-09-05T20:43:15.472Z,99.90
2022-09-05T20:44:55.550Z,99.90
2022-09-05T20:54:07.568Z,99.90
2022-09-05T20:59:42.944Z,99.90
2022-09-05T21:05:20.816Z,99.90
2022-09-05T21:19:43.868Z,99.90
2022-09-05T21:22:43.155Z,99.90
2022-09-05T21:47:49.928Z,99.90
2022-09-05T21:51:37.977Z,99.90
2022-09-05T21:59:24.826Z,99.90
2022-09-05T22:25:33.974Z,99.90
2022-09-05T22:36:31.990Z,99.90
2022-09-05T22:52:55.519Z,99.90
